sensor_id;sensor_type;location;lat;lon;timestamp;P1;durP1;ratioP1;P2;durP2;ratioP2
49978;SDS011;35869;50.990;6.962;2024-02-23T00:01:59;2.28;;;0.45;;
49978;SDS011;35869;50.990;6.962;2024-02-23T00:06:59;1.30;;;0.60;;
49978;SDS011;35869;50.990;6.962;2024-02-23T00:11:59;2.47;;;0.30;;
49978;SDS011;35869;50.990;6.962;2024-02-23T00:16:59;0.75;;;0.30;;
49978;SDS011;35869;50.990;6.962;2024-02-23T00:22:00;0.93;;;0.40;;
49978;SDS011;35869;50.990;6.962;2024-02-23T00:27:00;0.50;;;0.45;;
49978;SDS011;35869;50.990;6.962;2024-02-23T00:32:00;0.90;;;0.40;;
49978;SDS011;35869;50.990;6.962;2024-02-23T00:37:01;1.53;;;0.60;;
49978;SDS011;35869;50.990;6.962;2024-02-23T00:42:01;0.40;;;0.40;;
49978;SDS011;35869;50.990;6.962;2024-02-23T00:47:01;0.55;;;0.52;;
49978;SDS011;35869;50.990;6.962;2024-02-23T00:52:01;1.92;;;0.73;;
49978;SDS011;35869;50.990;6.962;2024-02-23T00:57:02;0.38;;;0.35;;
49978;SDS011;35869;50.990;6.962;2024-02-23T01:02:02;1.37;;;0.53;;
49978;SDS011;35869;50.990;6.962;2024-02-23T01:07:02;0.73;;;0.45;;
49978;SDS011;35869;50.990;6.962;2024-02-23T01:12:03;1.70;;;0.50;;
49978;SDS011;35869;50.990;6.962;2024-02-23T01:17:03;1.60;;;0.57;;
49978;SDS011;35869;50.990;6.962;2024-02-23T01:22:03;1.00;;;0.50;;
49978;SDS011;35869;50.990;6.962;2024-02-23T01:27:03;2.70;;;0.68;;
49978;SDS011;35869;50.990;6.962;2024-02-23T01:32:04;4.07;;;0.90;;
49978;SDS011;35869;50.990;6.962;2024-02-23T01:37:04;2.50;;;0.75;;
49978;SDS011;35869;50.990;6.962;2024-02-23T01:42:05;1.90;;;0.70;;
49978;SDS011;35869;50.990;6.962;2024-02-23T01:47:05;1.38;;;0.47;;
49978;SDS011;35869;50.990;6.962;2024-02-23T01:52:05;2.67;;;0.50;;
49978;SDS011;35869;50.990;6.962;2024-02-23T01:57:05;2.55;;;0.40;;
49978;SDS011;35869;50.990;6.962;2024-02-23T02:02:08;1.70;;;0.63;;
49978;SDS011;35869;50.990;6.962;2024-02-23T02:07:08;2.22;;;0.60;;
49978;SDS011;35869;50.990;6.962;2024-02-23T02:12:09;1.80;;;0.80;;
49978;SDS011;35869;50.990;6.962;2024-02-23T02:17:09;2.50;;;0.57;;
49978;SDS011;35869;50.990;6.962;2024-02-23T02:22:09;1.52;;;0.60;;
49978;SDS011;35869;50.990;6.962;2024-02-23T02:27:09;1.10;;;0.70;;
49978;SDS011;35869;50.990;6.962;2024-02-23T02:32:10;1.33;;;0.70;;
49978;SDS011;35869;50.990;6.962;2024-02-23T02:37:10;3.38;;;1.10;;
49978;SDS011;35869;50.990;6.962;2024-02-23T02:42:10;2.35;;;0.70;;
49978;SDS011;35869;50.990;6.962;2024-02-23T02:47:10;3.13;;;0.70;;
49978;SDS011;35869;50.990;6.962;2024-02-23T02:52:10;1.10;;;0.70;;
49978;SDS011;35869;50.990;6.962;2024-02-23T02:57:11;1.42;;;0.63;;
49978;SDS011;35869;50.990;6.962;2024-02-23T03:02:11;4.13;;;1.00;;
49978;SDS011;35869;50.990;6.962;2024-02-23T03:07:12;2.03;;;0.65;;
49978;SDS011;35869;50.990;6.962;2024-02-23T03:12:12;1.88;;;1.00;;
49978;SDS011;35869;50.990;6.962;2024-02-23T03:17:12;1.90;;;0.60;;
49978;SDS011;35869;50.990;6.962;2024-02-23T03:22:12;4.80;;;0.80;;
49978;SDS011;35869;50.990;6.962;2024-02-23T03:27:13;1.48;;;0.63;;
49978;SDS011;35869;50.990;6.962;2024-02-23T03:32:13;1.98;;;0.80;;
49978;SDS011;35869;50.990;6.962;2024-02-23T03:37:13;1.58;;;0.80;;
49978;SDS011;35869;50.990;6.962;2024-02-23T03:42:13;2.83;;;0.70;;
49978;SDS011;35869;50.990;6.962;2024-02-23T03:47:13;4.03;;;0.80;;
49978;SDS011;35869;50.990;6.962;2024-02-23T03:52:14;1.13;;;0.55;;
49978;SDS011;35869;50.990;6.962;2024-02-23T03:57:14;2.45;;;0.98;;
49978;SDS011;35869;50.990;6.962;2024-02-23T04:02:14;2.65;;;0.80;;
49978;SDS011;35869;50.990;6.962;2024-02-23T04:07:14;4.45;;;0.88;;
49978;SDS011;35869;50.990;6.962;2024-02-23T04:12:14;7.45;;;0.98;;
49978;SDS011;35869;50.990;6.962;2024-02-23T04:17:15;7.03;;;1.20;;
49978;SDS011;35869;50.990;6.962;2024-02-23T04:22:15;1.90;;;0.65;;
49978;SDS011;35869;50.990;6.962;2024-02-23T04:27:15;3.58;;;1.17;;
49978;SDS011;35869;50.990;6.962;2024-02-23T04:32:16;2.03;;;0.95;;
49978;SDS011;35869;50.990;6.962;2024-02-23T04:37:16;2.05;;;0.93;;
49978;SDS011;35869;50.990;6.962;2024-02-23T04:42:16;2.42;;;1.02;;
49978;SDS011;35869;50.990;6.962;2024-02-23T04:47:16;2.03;;;1.13;;
49978;SDS011;35869;50.990;6.962;2024-02-23T04:52:17;4.57;;;0.80;;
49978;SDS011;35869;50.990;6.962;2024-02-23T04:57:17;3.00;;;0.85;;
49978;SDS011;35869;50.990;6.962;2024-02-23T05:02:17;3.35;;;0.90;;
49978;SDS011;35869;50.990;6.962;2024-02-23T05:07:17;2.83;;;0.90;;
49978;SDS011;35869;50.990;6.962;2024-02-23T05:12:17;2.95;;;1.08;;
49978;SDS011;35869;50.990;6.962;2024-02-23T05:17:18;2.22;;;0.90;;
49978;SDS011;35869;50.990;6.962;2024-02-23T05:22:18;2.40;;;1.10;;
49978;SDS011;35869;50.990;6.962;2024-02-23T05:27:18;2.38;;;1.35;;
49978;SDS011;35869;50.990;6.962;2024-02-23T05:32:18;3.55;;;1.08;;
49978;SDS011;35869;50.990;6.962;2024-02-23T05:37:18;2.00;;;1.10;;
49978;SDS011;35869;50.990;6.962;2024-02-23T05:42:19;5.25;;;1.20;;
49978;SDS011;35869;50.990;6.962;2024-02-23T05:47:19;5.00;;;1.40;;
49978;SDS011;35869;50.990;6.962;2024-02-23T05:52:19;1.88;;;1.00;;
49978;SDS011;35869;50.990;6.962;2024-02-23T05:57:19;2.05;;;1.17;;
49978;SDS011;35869;50.990;6.962;2024-02-23T06:02:20;2.67;;;1.42;;
49978;SDS011;35869;50.990;6.962;2024-02-23T06:07:20;3.22;;;0.88;;
49978;SDS011;35869;50.990;6.962;2024-02-23T06:12:20;2.25;;;1.00;;
49978;SDS011;35869;50.990;6.962;2024-02-23T06:17:20;4.13;;;1.25;;
49978;SDS011;35869;50.990;6.962;2024-02-23T06:22:20;2.72;;;1.08;;
49978;SDS011;35869;50.990;6.962;2024-02-23T06:27:21;4.05;;;1.27;;
49978;SDS011;35869;50.990;6.962;2024-02-23T06:32:21;5.40;;;1.20;;
49978;SDS011;35869;50.990;6.962;2024-02-23T06:37:21;4.28;;;1.48;;
49978;SDS011;35869;50.990;6.962;2024-02-23T06:42:21;2.88;;;1.17;;
49978;SDS011;35869;50.990;6.962;2024-02-23T06:47:22;3.03;;;1.52;;
49978;SDS011;35869;50.990;6.962;2024-02-23T06:52:22;4.60;;;1.25;;
49978;SDS011;35869;50.990;6.962;2024-02-23T06:57:22;4.55;;;1.50;;
49978;SDS011;35869;50.990;6.962;2024-02-23T07:02:22;4.07;;;1.42;;
49978;SDS011;35869;50.990;6.962;2024-02-23T07:07:22;4.32;;;2.30;;
49978;SDS011;35869;50.990;6.962;2024-02-23T07:12:23;4.50;;;2.13;;
49978;SDS011;35869;50.990;6.962;2024-02-23T07:17:23;7.88;;;2.15;;
49978;SDS011;35869;50.990;6.962;2024-02-23T07:22:23;4.00;;;1.80;;
49978;SDS011;35869;50.990;6.962;2024-02-23T07:27:24;3.80;;;1.80;;
49978;SDS011;35869;50.990;6.962;2024-02-23T07:32:24;5.00;;;1.55;;
49978;SDS011;35869;50.990;6.962;2024-02-23T07:37:25;5.75;;;1.55;;
49978;SDS011;35869;50.990;6.962;2024-02-23T07:42:26;7.25;;;1.73;;
49978;SDS011;35869;50.990;6.962;2024-02-23T07:47:26;5.10;;;1.30;;
49978;SDS011;35869;50.990;6.962;2024-02-23T07:52:26;2.45;;;1.30;;
49978;SDS011;35869;50.990;6.962;2024-02-23T07:57:27;2.70;;;1.38;;
49978;SDS011;35869;50.990;6.962;2024-02-23T08:02:27;11.02;;;2.08;;
49978;SDS011;35869;50.990;6.962;2024-02-23T08:07:27;5.85;;;1.30;;
49978;SDS011;35869;50.990;6.962;2024-02-23T08:12:27;7.00;;;1.52;;
49978;SDS011;35869;50.990;6.962;2024-02-23T08:17:27;5.15;;;1.50;;
49978;SDS011;35869;50.990;6.962;2024-02-23T08:22:28;5.00;;;1.40;;
49978;SDS011;35869;50.990;6.962;2024-02-23T08:27:28;3.88;;;1.20;;
49978;SDS011;35869;50.990;6.962;2024-02-23T08:32:29;6.63;;;1.90;;
49978;SDS011;35869;50.990;6.962;2024-02-23T08:37:30;4.55;;;1.50;;
49978;SDS011;35869;50.990;6.962;2024-02-23T08:42:30;6.22;;;1.27;;
49978;SDS011;35869;50.990;6.962;2024-02-23T08:47:30;3.47;;;1.65;;
49978;SDS011;35869;50.990;6.962;2024-02-23T08:52:30;4.78;;;1.70;;
49978;SDS011;35869;50.990;6.962;2024-02-23T08:57:33;1.77;;;0.90;;
49978;SDS011;35869;50.990;6.962;2024-02-23T09:02:33;4.25;;;1.00;;
49978;SDS011;35869;50.990;6.962;2024-02-23T09:07:33;3.90;;;1.00;;
49978;SDS011;35869;50.990;6.962;2024-02-23T09:12:33;2.78;;;1.27;;
49978;SDS011;35869;50.990;6.962;2024-02-23T09:17:33;4.75;;;1.15;;
49978;SDS011;35869;50.990;6.962;2024-02-23T09:22:34;3.67;;;1.05;;
49978;SDS011;35869;50.990;6.962;2024-02-23T09:27:35;2.67;;;0.77;;
49978;SDS011;35869;50.990;6.962;2024-02-23T09:37:35;3.53;;;1.00;;
49978;SDS011;35869;50.990;6.962;2024-02-23T09:42:35;1.52;;;0.80;;
49978;SDS011;35869;50.990;6.962;2024-02-23T09:47:36;2.60;;;0.80;;
49978;SDS011;35869;50.990;6.962;2024-02-23T09:52:36;2.78;;;0.70;;
49978;SDS011;35869;50.990;6.962;2024-02-23T09:57:36;5.07;;;1.20;;
49978;SDS011;35869;50.990;6.962;2024-02-23T10:02:37;1.55;;;0.60;;
49978;SDS011;35869;50.990;6.962;2024-02-23T10:07:40;2.35;;;0.80;;
49978;SDS011;35869;50.990;6.962;2024-02-23T10:12:40;1.60;;;0.90;;
49978;SDS011;35869;50.990;6.962;2024-02-23T10:17:40;2.63;;;0.73;;
49978;SDS011;35869;50.990;6.962;2024-02-23T10:22:40;2.30;;;0.50;;
49978;SDS011;35869;50.990;6.962;2024-02-23T10:27:41;1.70;;;0.60;;
49978;SDS011;35869;50.990;6.962;2024-02-23T10:32:41;1.33;;;0.73;;
49978;SDS011;35869;50.990;6.962;2024-02-23T10:37:42;1.33;;;0.80;;
49978;SDS011;35869;50.990;6.962;2024-02-23T10:42:43;3.13;;;0.52;;
49978;SDS011;35869;50.990;6.962;2024-02-23T10:47:45;1.77;;;0.60;;
49978;SDS011;35869;50.990;6.962;2024-02-23T10:52:47;1.85;;;0.60;;
49978;SDS011;35869;50.990;6.962;2024-02-23T10:57:48;2.60;;;0.55;;
49978;SDS011;35869;50.990;6.962;2024-02-23T11:02:50;4.50;;;0.70;;
49978;SDS011;35869;50.990;6.962;2024-02-23T11:07:55;2.78;;;1.00;;
49978;SDS011;35869;50.990;6.962;2024-02-23T11:12:59;1.33;;;0.32;;
49978;SDS011;35869;50.990;6.962;2024-02-23T11:18:00;6.43;;;1.30;;
49978;SDS011;35869;50.990;6.962;2024-02-23T11:23:00;1.17;;;0.65;;
49978;SDS011;35869;50.990;6.962;2024-02-23T11:28:00;5.55;;;0.85;;
49978;SDS011;35869;50.990;6.962;2024-02-23T11:33:01;4.38;;;1.13;;
49978;SDS011;35869;50.990;6.962;2024-02-23T11:38:01;2.22;;;0.73;;
49978;SDS011;35869;50.990;6.962;2024-02-23T11:43:04;5.20;;;0.80;;
49978;SDS011;35869;50.990;6.962;2024-02-23T11:48:06;3.10;;;1.05;;
49978;SDS011;35869;50.990;6.962;2024-02-23T11:58:08;6.20;;;0.98;;
49978;SDS011;35869;50.990;6.962;2024-02-23T12:03:08;4.07;;;1.00;;
49978;SDS011;35869;50.990;6.962;2024-02-23T12:08:08;3.08;;;0.80;;
49978;SDS011;35869;50.990;6.962;2024-02-23T12:13:08;6.97;;;1.37;;
49978;SDS011;35869;50.990;6.962;2024-02-23T12:18:10;2.15;;;0.73;;
49978;SDS011;35869;50.990;6.962;2024-02-23T12:23:11;2.15;;;0.90;;
49978;SDS011;35869;50.990;6.962;2024-02-23T12:28:11;4.57;;;1.45;;
49978;SDS011;35869;50.990;6.962;2024-02-23T12:33:17;4.38;;;1.30;;
49978;SDS011;35869;50.990;6.962;2024-02-23T12:38:17;3.22;;;1.05;;
49978;SDS011;35869;50.990;6.962;2024-02-23T12:43:17;4.05;;;1.13;;
49978;SDS011;35869;50.990;6.962;2024-02-23T12:48:18;3.37;;;1.10;;
49978;SDS011;35869;50.990;6.962;2024-02-23T12:53:35;4.90;;;1.20;;
49978;SDS011;35869;50.990;6.962;2024-02-23T12:58:36;2.70;;;0.90;;
49978;SDS011;35869;50.990;6.962;2024-02-23T13:03:38;2.70;;;0.90;;
49978;SDS011;35869;50.990;6.962;2024-02-23T13:08:39;3.72;;;1.63;;
49978;SDS011;35869;50.990;6.962;2024-02-23T13:13:39;8.30;;;0.98;;
49978;SDS011;35869;50.990;6.962;2024-02-23T13:18:39;1.80;;;0.52;;
49978;SDS011;35869;50.990;6.962;2024-02-23T13:23:40;1.50;;;1.10;;
49978;SDS011;35869;50.990;6.962;2024-02-23T13:28:43;3.45;;;1.27;;
49978;SDS011;35869;50.990;6.962;2024-02-23T13:33:44;2.15;;;1.00;;
49978;SDS011;35869;50.990;6.962;2024-02-23T13:38:44;1.53;;;0.80;;
49978;SDS011;35869;50.990;6.962;2024-02-23T13:43:45;4.38;;;1.17;;
49978;SDS011;35869;50.990;6.962;2024-02-23T13:53:45;2.70;;;0.80;;
49978;SDS011;35869;50.990;6.962;2024-02-23T13:58:46;1.52;;;0.73;;
49978;SDS011;35869;50.990;6.962;2024-02-23T14:03:46;3.38;;;0.75;;
49978;SDS011;35869;50.990;6.962;2024-02-23T14:08:46;2.47;;;0.60;;
49978;SDS011;35869;50.990;6.962;2024-02-23T14:13:46;3.53;;;0.82;;
49978;SDS011;35869;50.990;6.962;2024-02-23T14:18:46;2.38;;;0.75;;
49978;SDS011;35869;50.990;6.962;2024-02-23T14:23:47;1.60;;;0.60;;
49978;SDS011;35869;50.990;6.962;2024-02-23T14:28:47;5.05;;;0.80;;
49978;SDS011;35869;50.990;6.962;2024-02-23T14:33:47;8.20;;;0.70;;
49978;SDS011;35869;50.990;6.962;2024-02-23T14:38:47;1.15;;;0.70;;
49978;SDS011;35869;50.990;6.962;2024-02-23T14:43:48;2.75;;;0.80;;
49978;SDS011;35869;50.990;6.962;2024-02-23T14:48:48;2.55;;;0.50;;
49978;SDS011;35869;50.990;6.962;2024-02-23T14:53:48;2.47;;;0.47;;
49978;SDS011;35869;50.990;6.962;2024-02-23T14:58:48;2.28;;;0.63;;
49978;SDS011;35869;50.990;6.962;2024-02-23T15:03:48;1.63;;;0.70;;
49978;SDS011;35869;50.990;6.962;2024-02-23T15:08:49;1.50;;;0.57;;
49978;SDS011;35869;50.990;6.962;2024-02-23T15:13:49;3.38;;;0.70;;
49978;SDS011;35869;50.990;6.962;2024-02-23T15:18:49;1.40;;;0.70;;
49978;SDS011;35869;50.990;6.962;2024-02-23T15:23:50;3.00;;;0.55;;
49978;SDS011;35869;50.990;6.962;2024-02-23T15:28:50;2.83;;;0.63;;
49978;SDS011;35869;50.990;6.962;2024-02-23T15:33:50;3.75;;;0.90;;
49978;SDS011;35869;50.990;6.962;2024-02-23T15:38:50;3.03;;;0.70;;
49978;SDS011;35869;50.990;6.962;2024-02-23T15:43:50;2.38;;;0.55;;
49978;SDS011;35869;50.990;6.962;2024-02-23T15:48:51;2.28;;;0.65;;
49978;SDS011;35869;50.990;6.962;2024-02-23T15:53:51;6.60;;;0.65;;
49978;SDS011;35869;50.990;6.962;2024-02-23T15:58:51;1.47;;;0.63;;
49978;SDS011;35869;50.990;6.962;2024-02-23T16:03:51;1.92;;;0.75;;
49978;SDS011;35869;50.990;6.962;2024-02-23T16:08:52;2.78;;;0.80;;
49978;SDS011;35869;50.990;6.962;2024-02-23T16:13:52;1.45;;;0.80;;
49978;SDS011;35869;50.990;6.962;2024-02-23T16:18:52;1.90;;;0.90;;
49978;SDS011;35869;50.990;6.962;2024-02-23T16:23:52;1.25;;;0.60;;
49978;SDS011;35869;50.990;6.962;2024-02-23T16:28:53;1.55;;;0.75;;
49978;SDS011;35869;50.990;6.962;2024-02-23T16:33:53;3.65;;;0.90;;
49978;SDS011;35869;50.990;6.962;2024-02-23T16:38:53;4.82;;;0.90;;
49978;SDS011;35869;50.990;6.962;2024-02-23T16:43:53;2.55;;;0.90;;
49978;SDS011;35869;50.990;6.962;2024-02-23T16:48:53;21.65;;;1.75;;
49978;SDS011;35869;50.990;6.962;2024-02-23T16:53:54;3.30;;;1.10;;
49978;SDS011;35869;50.990;6.962;2024-02-23T16:58:54;3.50;;;0.90;;
49978;SDS011;35869;50.990;6.962;2024-02-23T17:03:54;2.50;;;0.90;;
49978;SDS011;35869;50.990;6.962;2024-02-23T17:08:55;2.67;;;1.00;;
49978;SDS011;35869;50.990;6.962;2024-02-23T17:13:55;1.85;;;1.02;;
49978;SDS011;35869;50.990;6.962;2024-02-23T17:18:55;2.10;;;1.10;;
49978;SDS011;35869;50.990;6.962;2024-02-23T17:23:55;1.30;;;0.97;;
49978;SDS011;35869;50.990;6.962;2024-02-23T17:28:55;2.67;;;1.20;;
49978;SDS011;35869;50.990;6.962;2024-02-23T17:33:56;2.95;;;1.00;;
49978;SDS011;35869;50.990;6.962;2024-02-23T17:38:56;6.40;;;0.98;;
49978;SDS011;35869;50.990;6.962;2024-02-23T17:43:56;3.13;;;1.83;;
49978;SDS011;35869;50.990;6.962;2024-02-23T17:48:57;4.40;;;1.67;;
49978;SDS011;35869;50.990;6.962;2024-02-23T17:53:57;3.47;;;1.40;;
49978;SDS011;35869;50.990;6.962;2024-02-23T17:58:57;2.70;;;1.38;;
49978;SDS011;35869;50.990;6.962;2024-02-23T18:03:58;4.13;;;1.30;;
49978;SDS011;35869;50.990;6.962;2024-02-23T18:08:58;3.28;;;1.63;;
49978;SDS011;35869;50.990;6.962;2024-02-23T18:13:59;4.80;;;1.27;;
49978;SDS011;35869;50.990;6.962;2024-02-23T18:18:59;3.55;;;1.45;;
49978;SDS011;35869;50.990;6.962;2024-02-23T18:23:59;2.85;;;1.70;;
49978;SDS011;35869;50.990;6.962;2024-02-23T18:29:00;3.80;;;1.63;;
49978;SDS011;35869;50.990;6.962;2024-02-23T18:34:00;7.88;;;1.80;;
49978;SDS011;35869;50.990;6.962;2024-02-23T18:39:00;6.70;;;2.08;;
49978;SDS011;35869;50.990;6.962;2024-02-23T18:44:02;6.22;;;2.53;;
49978;SDS011;35869;50.990;6.962;2024-02-23T18:49:02;2.90;;;1.90;;
49978;SDS011;35869;50.990;6.962;2024-02-23T18:54:03;2.42;;;1.63;;
49978;SDS011;35869;50.990;6.962;2024-02-23T18:59:03;3.87;;;1.47;;
49978;SDS011;35869;50.990;6.962;2024-02-23T19:04:03;3.70;;;1.92;;
49978;SDS011;35869;50.990;6.962;2024-02-23T19:09:04;2.33;;;1.40;;
49978;SDS011;35869;50.990;6.962;2024-02-23T19:14:04;2.13;;;1.10;;
49978;SDS011;35869;50.990;6.962;2024-02-23T19:19:04;6.50;;;2.22;;
49978;SDS011;35869;50.990;6.962;2024-02-23T19:24:05;4.30;;;1.52;;
49978;SDS011;35869;50.990;6.962;2024-02-23T19:29:05;5.07;;;1.33;;
49978;SDS011;35869;50.990;6.962;2024-02-23T19:34:05;2.75;;;1.10;;
49978;SDS011;35869;50.990;6.962;2024-02-23T19:39:05;3.83;;;1.20;;
49978;SDS011;35869;50.990;6.962;2024-02-23T19:44:06;3.53;;;1.40;;
49978;SDS011;35869;50.990;6.962;2024-02-23T19:49:07;3.90;;;1.50;;
49978;SDS011;35869;50.990;6.962;2024-02-23T19:59:07;4.25;;;1.67;;
49978;SDS011;35869;50.990;6.962;2024-02-23T20:04:07;4.72;;;1.80;;
49978;SDS011;35869;50.990;6.962;2024-02-23T20:09:08;2.58;;;1.70;;
49978;SDS011;35869;50.990;6.962;2024-02-23T20:14:08;3.53;;;1.48;;
49978;SDS011;35869;50.990;6.962;2024-02-23T20:19:08;2.00;;;1.45;;
49978;SDS011;35869;50.990;6.962;2024-02-23T20:24:08;2.30;;;1.30;;
49978;SDS011;35869;50.990;6.962;2024-02-23T20:29:08;2.17;;;1.45;;
49978;SDS011;35869;50.990;6.962;2024-02-23T20:34:09;2.05;;;1.10;;
49978;SDS011;35869;50.990;6.962;2024-02-23T20:39:09;1.77;;;1.47;;
49978;SDS011;35869;50.990;6.962;2024-02-23T20:44:10;4.05;;;1.50;;
49978;SDS011;35869;50.990;6.962;2024-02-23T20:49:10;2.40;;;1.40;;
49978;SDS011;35869;50.990;6.962;2024-02-23T20:54:10;5.00;;;1.50;;
49978;SDS011;35869;50.990;6.962;2024-02-23T20:59:10;2.42;;;1.52;;
49978;SDS011;35869;50.990;6.962;2024-02-23T21:04:11;2.25;;;1.40;;
49978;SDS011;35869;50.990;6.962;2024-02-23T21:09:11;2.03;;;1.23;;
49978;SDS011;35869;50.990;6.962;2024-02-23T21:14:11;3.53;;;1.35;;
49978;SDS011;35869;50.990;6.962;2024-02-23T21:19:11;1.25;;;0.77;;
49978;SDS011;35869;50.990;6.962;2024-02-23T21:24:11;2.65;;;0.95;;
49978;SDS011;35869;50.990;6.962;2024-02-23T21:29:12;1.42;;;1.00;;
49978;SDS011;35869;50.990;6.962;2024-02-23T21:34:12;1.20;;;0.90;;
49978;SDS011;35869;50.990;6.962;2024-02-23T21:39:12;1.30;;;1.00;;
49978;SDS011;35869;50.990;6.962;2024-02-23T21:44:12;1.70;;;0.73;;
49978;SDS011;35869;50.990;6.962;2024-02-23T21:49:12;1.92;;;0.70;;
49978;SDS011;35869;50.990;6.962;2024-02-23T21:54:13;1.30;;;1.00;;
49978;SDS011;35869;50.990;6.962;2024-02-23T21:59:13;1.23;;;0.80;;
49978;SDS011;35869;50.990;6.962;2024-02-23T22:04:13;2.25;;;1.13;;
49978;SDS011;35869;50.990;6.962;2024-02-23T22:09:13;2.05;;;1.08;;
49978;SDS011;35869;50.990;6.962;2024-02-23T22:14:13;2.55;;;1.25;;
49978;SDS011;35869;50.990;6.962;2024-02-23T22:19:14;2.05;;;1.08;;
49978;SDS011;35869;50.990;6.962;2024-02-23T22:24:14;2.88;;;2.20;;
49978;SDS011;35869;50.990;6.962;2024-02-23T22:29:14;2.20;;;1.30;;
49978;SDS011;35869;50.990;6.962;2024-02-23T22:34:14;4.05;;;2.10;;
49978;SDS011;35869;50.990;6.962;2024-02-23T22:39:14;2.83;;;1.80;;
49978;SDS011;35869;50.990;6.962;2024-02-23T22:44:15;1.60;;;1.42;;
49978;SDS011;35869;50.990;6.962;2024-02-23T22:49:15;2.95;;;1.27;;
49978;SDS011;35869;50.990;6.962;2024-02-23T22:54:15;4.25;;;1.70;;
49978;SDS011;35869;50.990;6.962;2024-02-23T22:59:15;1.80;;;1.17;;
49978;SDS011;35869;50.990;6.962;2024-02-23T23:04:15;1.50;;;0.98;;
49978;SDS011;35869;50.990;6.962;2024-02-23T23:09:16;1.42;;;1.13;;
49978;SDS011;35869;50.990;6.962;2024-02-23T23:14:16;1.67;;;0.90;;
49978;SDS011;35869;50.990;6.962;2024-02-23T23:19:16;2.20;;;1.75;;
49978;SDS011;35869;50.990;6.962;2024-02-23T23:24:16;6.57;;;1.50;;
49978;SDS011;35869;50.990;6.962;2024-02-23T23:29:16;1.45;;;1.10;;
49978;SDS011;35869;50.990;6.962;2024-02-23T23:34:17;1.10;;;0.80;;
49978;SDS011;35869;50.990;6.962;2024-02-23T23:39:17;2.78;;;1.58;;
49978;SDS011;35869;50.990;6.962;2024-02-23T23:44:17;1.27;;;1.00;;
49978;SDS011;35869;50.990;6.962;2024-02-23T23:49:17;2.30;;;0.90;;
49978;SDS011;35869;50.990;6.962;2024-02-23T23:54:18;1.55;;;1.20;;
49978;SDS011;35869;50.990;6.962;2024-02-23T23:59:18;2.15;;;1.10;;
